Time;durP1;ratioP1;P1;durP2;ratioP2;P2;SDS_P1;SDS_P2;PMS_P1;PMS_P2;Temp;Humidity;BMP_temperature;BMP_pressure;BME280_temperature;BME280_humidity;BME280_pressure;Samples;Min_cycle;Max_cycle;Signal;HPM_P1;HPM_P2
2020/12/11 00:01:50;;;;;;;27.93;16.10;;;6.80;47.20;;;;;;10280197;28;20606;-72
2020/12/11 00:06:52;;;;;;;28.93;16.77;;;6.80;47.10;;;;;;10283603;28;20220;-72
2020/12/11 00:11:55;;;;;;;27.50;17.17;;;6.80;47.80;;;;;;10282590;28;20228;-72
2020/12/11 00:16:58;;;;;;;30.30;17.83;;;6.70;46.90;;;;;;10269593;28;20266;-72
2020/12/11 00:22:00;;;;;;;25.87;15.83;;;6.70;47.00;;;;;;10277428;28;20303;-72
2020/12/11 00:27:03;;;;;;;26.87;16.33;;;6.70;46.90;;;;;;10283840;28;20224;-69
2020/12/11 00:32:05;;;;;;;24.67;15.57;;;6.70;46.70;;;;;;10283816;28;20439;-72
2020/12/11 00:37:08;;;;;;;22.10;13.67;;;6.70;46.50;;;;;;10282372;28;20323;-72
2020/12/11 00:42:11;;;;;;;17.70;10.67;;;6.70;46.60;;;;;;10269895;28;20237;-72
2020/12/11 00:47:13;;;;;;;14.73;10.43;;;6.60;46.50;;;;;;10277107;28;20323;-72
2020/12/11 00:52:15;;;;;;;11.40;9.20;;;6.60;46.50;;;;;;10266013;28;20250;-68
2020/12/11 00:57:18;;;;;;;10.03;8.97;;;6.60;46.20;;;;;;10282773;28;20236;-68
2020/12/11 01:02:20;;;;;;;9.93;8.93;;;6.60;46.10;;;;;;10276578;28;20234;-71
2020/12/11 01:07:23;;;;;;;9.90;8.90;;;6.60;46.10;;;;;;10272010;28;20235;-71
2020/12/11 01:12:26;;;;;;;10.57;9.47;;;6.60;46.10;;;;;;10272626;28;20666;-72
2020/12/11 01:17:28;;;;;;;11.33;10.17;;;6.60;46.00;;;;;;10283145;28;20242;-72
2020/12/11 01:22:32;;;;;;;12.47;10.53;;;6.50;46.00;;;;;;10264606;28;20247;-69
2020/12/11 01:27:35;;;;;;;11.50;9.90;;;6.50;46.00;;;;;;10280153;28;20223;-69
2020/12/11 01:32:37;;;;;;;11.97;10.47;;;6.50;46.20;;;;;;10282361;28;20238;-68
2020/12/11 01:37:39;;;;;;;10.63;9.43;;;6.50;46.10;;;;;;10272172;28;20234;-68
2020/12/11 01:42:43;;;;;;;11.83;10.63;;;6.40;46.10;;;;;;10280044;28;20315;-68
2020/12/11 01:47:46;;;;;;;11.30;10.10;;;6.40;46.20;;;;;;10267822;28;20274;-72
2020/12/11 01:52:51;;;;;;;13.97;12.47;;;6.40;46.30;;;;;;10273180;28;20228;-72
2020/12/11 01:58:00;;;;;;;16.73;13.80;;;6.40;45.60;;;;;;10273042;28;20279;-72
2020/12/11 02:03:05;;;;;;;18.87;15.33;;;6.30;45.40;;;;;;10269801;28;20246;-71
2020/12/11 02:08:07;;;;;;;19.53;15.87;;;6.20;45.60;;;;;;10273076;28;20307;-72
2020/12/11 02:13:10;;;;;;;17.17;14.97;;;6.10;45.70;;;;;;10281519;28;20599;-72
2020/12/11 02:18:13;;;;;;;19.30;16.63;;;6.00;45.90;;;;;;10275997;28;20686;-72
2020/12/11 02:23:16;;;;;;;18.93;15.80;;;6.00;46.00;;;;;;10271627;28;20237;-72
2020/12/11 02:28:18;;;;;;;19.87;16.03;;;5.90;46.10;;;;;;10283647;28;20242;-72
2020/12/11 02:33:20;;;;;;;18.67;14.90;;;5.90;46.10;;;;;;10264761;28;20712;-72
2020/12/11 02:38:24;;;;;;;15.57;13.07;;;5.80;46.10;;;;;;10273653;28;20711;-72
2020/12/11 02:43:26;;;;;;;16.93;15.07;;;5.80;46.10;;;;;;10264093;28;20589;-72
2020/12/11 02:48:28;;;;;;;16.70;14.53;;;5.80;46.10;;;;;;10274532;28;20231;-72
2020/12/11 02:53:31;;;;;;;14.97;12.90;;;5.80;46.20;;;;;;10269237;28;20239;-72
2020/12/11 02:58:34;;;;;;;16.83;14.47;;;5.90;46.20;;;;;;10277132;28;20234;-72
2020/12/11 03:03:36;;;;;;;16.27;14.03;;;5.90;46.10;;;;;;10270989;28;20224;-71
2020/12/11 03:08:39;;;;;;;17.73;15.40;;;5.90;46.10;;;;;;10258449;28;20941;-72
2020/12/11 03:13:41;;;;;;;15.47;13.73;;;6.00;45.90;;;;;;10267574;28;20234;-68
2020/12/11 03:18:43;;;;;;;15.57;13.87;;;6.00;46.00;;;;;;10285562;28;20232;-69
2020/12/11 03:23:46;;;;;;;16.77;14.97;;;6.00;46.00;;;;;;10288102;28;20577;-69
2020/12/11 03:28:51;;;;;;;17.00;14.13;;;6.10;46.00;;;;;;10284877;28;20231;-69
2020/12/11 03:33:53;;;;;;;15.27;13.20;;;6.10;46.00;;;;;;10280298;28;20712;-69
2020/12/11 03:38:57;;;;;;;16.80;14.67;;;6.20;45.90;;;;;;10290344;28;21008;-69
2020/12/11 03:43:59;;;;;;;17.07;14.93;;;6.20;45.90;;;;;;10281526;28;20223;-69
2020/12/11 03:49:01;;;;;;;16.27;13.33;;;6.20;46.00;;;;;;10287394;28;21053;-71
2020/12/11 03:54:04;;;;;;;16.27;14.47;;;6.30;45.80;;;;;;10287381;28;20238;-69
2020/12/11 03:59:07;;;;;;;15.63;13.97;;;6.20;45.50;;;;;;10279578;28;20238;-69
2020/12/11 04:04:09;;;;;;;16.27;13.60;;;6.20;45.50;;;;;;10286927;28;20228;-71
2020/12/11 04:09:12;;;;;;;18.47;14.60;;;6.20;45.50;;;;;;10278080;28;20655;-71
2020/12/11 04:14:14;;;;;;;13.43;12.03;;;6.10;45.50;;;;;;10264109;28;20234;-69
2020/12/11 04:19:17;;;;;;;16.93;14.03;;;6.10;45.70;;;;;;10283445;28;20718;-71
2020/12/11 04:24:21;;;;;;;14.90;13.20;;;6.20;45.70;;;;;;10279565;28;20327;-72
2020/12/11 04:29:23;;;;;;;15.07;12.87;;;6.20;45.50;;;;;;10282038;28;20235;-72
2020/12/11 04:34:26;;;;;;;13.93;12.43;;;6.20;45.80;;;;;;10275906;28;20603;-69
2020/12/11 04:39:29;;;;;;;14.53;12.60;;;6.20;45.70;;;;;;10282546;28;20227;-72
2020/12/11 04:44:31;;;;;;;15.30;13.67;;;6.20;45.70;;;;;;10273567;28;20298;-72
2020/12/11 04:49:35;;;;;;;17.00;14.73;;;6.20;45.80;;;;;;10265995;28;20228;-72
2020/12/11 04:54:39;;;;;;;15.90;14.23;;;6.20;45.50;;;;;;10279321;28;20231;-75
2020/12/11 04:59:41;;;;;;;15.03;13.43;;;6.20;45.50;;;;;;10262062;28;20233;-72
2020/12/11 05:04:43;;;;;;;14.63;13.10;;;6.20;45.70;;;;;;10265054;28;20716;-72
2020/12/11 05:09:55;;;;;;;15.93;14.23;;;6.20;45.60;;;;;;10259780;28;20238;-72
2020/12/11 05:14:59;;;;;;;14.90;13.40;;;6.20;45.10;;;;;;10270052;28;20227;-72
2020/12/11 05:20:01;;;;;;;13.43;12.03;;;6.20;45.40;;;;;;10267261;28;20236;-72
2020/12/11 05:25:07;;;;;;;14.53;13.03;;;6.20;45.50;;;;;;10264638;28;20223;-72
2020/12/11 05:30:25;;;;;;;14.80;13.20;;;6.20;45.40;;;;;;10278773;28;20243;-72
2020/12/11 05:35:32;;;;;;;15.23;13.27;;;6.20;46.00;;;;;;10272210;28;20696;-72
2020/12/11 05:40:37;;;;;;;13.67;12.20;;;6.20;45.60;;;;;;10282997;28;20238;-72
2020/12/11 05:45:40;;;;;;;15.13;13.53;;;6.20;45.50;;;;;;10260160;28;20246;-72
2020/12/11 05:50:42;;;;;;;15.70;13.77;;;6.20;45.60;;;;;;10267026;28;20242;-72
2020/12/11 05:55:46;;;;;;;15.70;14.03;;;6.20;45.50;;;;;;10271891;28;20238;-74
2020/12/11 06:00:48;;;;;;;15.30;13.70;;;6.20;45.50;;;;;;10304168;23;20314;-71
2020/12/11 06:05:56;;;;;;;15.87;14.17;;;6.20;45.50;;;;;;10306705;28;20767;-71
2020/12/11 06:11:02;;;;;;;17.23;15.00;;;6.10;45.30;;;;;;10295282;28;20692;-71
2020/12/11 06:16:06;;;;;;;15.13;13.53;;;6.10;45.20;;;;;;10345406;28;20227;-72
2020/12/11 06:21:09;;;;;;;14.43;12.93;;;6.10;45.30;;;;;;10331480;28;20230;-71
2020/12/11 06:26:15;;;;;;;16.90;15.20;;;6.10;45.30;;;;;;10335528;28;20229;-72
2020/12/11 06:31:18;;;;;;;16.87;15.07;;;6.10;45.00;;;;;;10315725;28;20245;-72
2020/12/11 06:36:21;;;;;;;16.03;14.33;;;6.00;45.10;;;;;;10311549;28;24823;-72
2020/12/11 06:41:39;;;;;;;16.77;14.87;;;6.00;45.10;;;;;;10325105;28;20230;-72
2020/12/11 06:46:41;;;;;;;16.03;14.33;;;5.90;44.90;;;;;;10310571;28;20225;-72
2020/12/11 06:52:09;;;;;;;18.60;16.13;;;5.80;45.10;;;;;;10320283;28;20285;-72
2020/12/11 06:57:30;;;;;;;19.53;15.37;;;5.80;45.00;;;;;;10325245;28;20245;-72
2020/12/11 07:02:32;;;;;;;18.03;15.27;;;5.70;45.00;;;;;;10320249;28;20600;-71
2020/12/11 07:07:34;;;;;;;17.73;15.83;;;5.70;45.20;;;;;;10317485;28;20315;-71
2020/12/11 07:12:37;;;;;;;16.57;14.20;;;5.70;45.30;;;;;;10327964;28;20255;-71
2020/12/11 07:17:42;;;;;;;14.57;13.07;;;5.70;45.40;;;;;;10334787;28;20714;-71
2020/12/11 07:22:45;;;;;;;20.67;15.47;;;5.70;45.40;;;;;;10331051;28;20231;-71
2020/12/11 07:27:59;;;;;;;16.97;15.20;;;5.70;45.50;;;;;;10345289;28;20219;-73
2020/12/11 07:33:02;;;;;;;19.47;16.50;;;5.80;46.00;;;;;;10332278;28;20218;-72
2020/12/11 07:38:05;;;;;;;17.40;15.47;;;5.80;45.40;;;;;;10322344;28;20238;-71
2020/12/11 07:43:11;;;;;;;17.77;15.07;;;5.80;45.20;;;;;;10319390;28;20227;-71
2020/12/11 07:48:13;;;;;;;16.20;14.47;;;5.80;45.20;;;;;;10318786;28;20237;-70
2020/12/11 07:53:16;;;;;;;17.80;15.90;;;5.80;45.20;;;;;;10318184;28;20601;-70
2020/12/11 07:58:25;;;;;;;17.53;15.23;;;5.80;45.20;;;;;;10303022;28;20583;-70
2020/12/11 08:03:28;;;;;;;17.50;15.60;;;5.80;45.20;;;;;;10309670;28;20235;-70
2020/12/11 08:08:30;;;;;;;18.10;15.57;;;5.80;45.40;;;;;;10310381;28;20226;-70
2020/12/11 08:13:33;;;;;;;17.50;15.47;;;5.70;45.40;;;;;;10316029;28;20706;-70
2020/12/11 08:18:36;;;;;;;17.30;15.50;;;5.80;45.50;;;;;;10313411;28;20602;-74
2020/12/11 08:23:43;;;;;;;18.67;16.10;;;5.80;45.50;;;;;;10328014;28;20269;-74
2020/12/11 08:28:47;;;;;;;20.80;17.43;;;5.80;45.40;;;;;;10306217;28;20347;-74
2020/12/11 08:34:00;;;;;;;24.20;17.47;;;5.70;45.40;;;;;;10322538;28;20270;-74
2020/12/11 08:39:13;;;;;;;19.67;16.77;;;5.70;45.40;;;;;;10307036;28;20635;-73
2020/12/11 08:44:26;;;;;;;19.57;15.67;;;5.70;45.40;;;;;;10310062;28;20227;-74
2020/12/11 08:49:44;;;;;;;22.43;16.87;;;5.70;45.60;;;;;;10303567;28;20238;-74
2020/12/11 08:54:50;;;;;;;19.03;15.30;;;5.80;45.20;;;;;;10303018;28;20234;-74
2020/12/11 08:59:53;;;;;;;20.07;16.83;;;5.70;45.60;;;;;;10310588;28;20227;-74
2020/12/11 09:04:55;;;;;;;19.00;16.33;;;5.80;45.60;;;;;;10297398;28;20227;-74
2020/12/11 09:10:10;;;;;;;17.77;15.63;;;5.70;45.60;;;;;;10306285;28;20218;-73
2020/12/11 09:15:14;;;;;;;16.77;14.33;;;5.70;46.30;;;;;;10295310;28;20231;-74
2020/12/11 09:20:16;;;;;;;15.47;13.50;;;5.70;45.40;;;;;;10302227;28;20231;-74
2020/12/11 09:25:19;;;;;;;17.80;14.23;;;5.70;45.60;;;;;;10303776;28;20247;-74
2020/12/11 09:30:26;;;;;;;15.60;13.70;;;5.70;45.80;;;;;;10302448;28;20249;-73
2020/12/11 09:35:29;;;;;;;14.80;13.30;;;5.70;45.70;;;;;;10302301;28;20734;-74
2020/12/11 09:40:40;;;;;;;16.43;14.33;;;5.80;45.90;;;;;;10302413;28;20601;-74
2020/12/11 09:45:47;;;;;;;16.60;14.87;;;5.80;45.90;;;;;;10298388;28;20242;-74
2020/12/11 09:51:06;;;;;;;15.67;14.07;;;5.80;45.90;;;;;;10296600;28;20224;-74
2020/12/11 09:56:09;;;;;;;16.17;13.70;;;5.80;45.60;;;;;;10313635;28;20222;-74
2020/12/11 10:01:12;;;;;;;15.30;13.70;;;5.80;45.70;;;;;;10327197;28;20225;-74
2020/12/11 10:06:22;;;;;;;15.97;14.33;;;5.70;45.70;;;;;;10332257;28;20235;-74
2020/12/11 10:11:24;;;;;;;16.03;14.13;;;5.80;45.60;;;;;;10318515;28;20241;-74
2020/12/11 10:16:27;;;;;;;18.40;15.27;;;5.70;45.60;;;;;;10298203;28;20222;-71
2020/12/11 10:21:30;;;;;;;15.93;14.20;;;5.70;45.80;;;;;;10299727;28;20262;-70
2020/12/11 10:26:32;;;;;;;18.87;14.03;;;5.70;46.00;;;;;;10306939;28;20707;-70
2020/12/11 10:31:36;;;;;;;15.27;13.20;;;5.70;45.90;;;;;;10310354;28;20416;-70
2020/12/11 10:36:39;;;;;;;14.93;13.33;;;5.70;45.90;;;;;;10312086;28;20721;-70
2020/12/11 10:41:41;;;;;;;14.80;13.23;;;5.80;45.90;;;;;;10308873;28;20241;-70
2020/12/11 10:46:48;;;;;;;14.97;13.43;;;5.80;45.90;;;;;;10307605;28;20590;-70
2020/12/11 10:51:52;;;;;;;15.00;13.40;;;5.80;46.00;;;;;;10307329;28;20788;-75
2020/12/11 10:56:54;;;;;;;14.30;12.80;;;5.90;46.10;;;;;;10306762;28;20227;-74
2020/12/11 11:01:57;;;;;;;15.33;13.30;;;5.90;46.10;;;;;;10309274;28;20697;-75
2020/12/11 11:07:02;;;;;;;15.13;13.53;;;6.00;46.00;;;;;;10310761;28;20278;-75
2020/12/11 11:12:17;;;;;;;15.40;13.30;;;6.00;46.00;;;;;;10317851;28;20219;-75
2020/12/11 11:22:52;;;;;;;14.53;13.10;;;6.10;45.80;;;;;;10332240;28;20231;-75
2020/12/11 11:27:56;;;;;;;17.07;14.90;;;6.20;45.90;;;;;;10330068;28;20715;-75
2020/12/11 11:33:00;;;;;;;15.20;12.97;;;6.20;46.70;;;;;;10343067;28;20223;-76
2020/12/11 11:38:06;;;;;;;17.17;13.70;;;6.20;45.70;;;;;;10314519;28;20301;-76
2020/12/11 11:43:08;;;;;;;17.67;15.70;;;6.30;45.90;;;;;;10341602;28;20226;-75
2020/12/11 11:48:15;;;;;;;15.00;13.50;;;6.30;45.90;;;;;;10327429;28;20706;-75
2020/12/11 11:53:19;;;;;;;15.60;14.03;;;6.40;46.00;;;;;;10331043;28;20253;-75
2020/12/11 12:03:32;;;;;;;15.13;13.53;;;6.60;45.70;;;;;;10236818;28;20699;-74
2020/12/11 12:08:34;;;;;;;14.13;12.73;;;6.60;45.80;;;;;;10245242;28;20233;-74
2020/12/11 12:13:37;;;;;;;15.37;13.80;;;6.60;45.80;;;;;;10231960;28;20227;-74
2020/12/11 12:18:43;;;;;;;12.97;11.77;;;6.60;45.60;;;;;;10237693;28;20704;-74
2020/12/11 12:29:01;;;;;;;14.37;12.87;;;6.70;45.70;;;;;;10240195;28;20243;-73
2020/12/11 12:39:38;;;;;;;15.47;13.93;;;6.70;45.50;;;;;;10234978;28;20615;-68
2020/12/11 12:44:41;;;;;;;15.30;13.80;;;6.80;45.40;;;;;;10245421;28;20227;-68
2020/12/11 12:49:44;;;;;;;16.23;14.53;;;6.70;45.30;;;;;;10240603;28;20228;-69
2020/12/11 12:54:46;;;;;;;14.17;12.83;;;6.80;45.40;;;;;;10241926;28;20232;-68
2020/12/11 12:59:53;;;;;;;14.40;13.00;;;6.80;45.30;;;;;;10241105;28;20336;-68
2020/12/11 13:05:05;;;;;;;14.17;12.80;;;6.80;45.10;;;;;;10241617;28;20228;-68
2020/12/11 13:10:08;;;;;;;19.27;17.27;;;6.70;45.00;;;;;;10240568;28;20232;-69
2020/12/11 13:15:10;;;;;;;20.47;18.33;;;6.60;45.10;;;;;;10242404;28;20226;-69
2020/12/11 13:20:18;;;;;;;16.00;14.37;;;6.60;45.30;;;;;;10241227;28;20319;-68
2020/12/11 13:25:25;;;;;;;17.80;13.77;;;6.70;45.20;;;;;;10237522;28;20228;-69
2020/12/11 13:30:28;;;;;;;15.47;13.87;;;6.70;45.00;;;;;;10243976;28;20235;-68
2020/12/11 13:35:31;;;;;;;14.90;13.40;;;6.60;45.00;;;;;;10231944;28;20224;-68
2020/12/11 13:40:33;;;;;;;17.80;13.80;;;6.50;45.10;;;;;;10238316;28;20312;-68
2020/12/11 13:45:35;;;;;;;18.20;15.00;;;6.50;45.30;;;;;;10236047;28;20612;-68
2020/12/11 13:50:39;;;;;;;15.67;14.13;;;6.50;45.20;;;;;;10238582;28;20727;-68
2020/12/11 13:55:41;;;;;;;15.13;13.50;;;6.40;45.30;;;;;;10241830;28;20308;-68
2020/12/11 14:00:43;;;;;;;15.43;13.83;;;6.40;45.30;;;;;;10241141;28;20236;-68
2020/12/11 14:05:46;;;;;;;15.93;14.27;;;6.40;45.30;;;;;;10227779;28;20225;-69
2020/12/11 14:10:49;;;;;;;17.57;15.00;;;6.40;45.20;;;;;;10242883;28;20232;-68
2020/12/11 14:15:51;;;;;;;19.07;16.77;;;6.40;45.30;;;;;;10235376;28;20323;-69
2020/12/11 14:21:03;;;;;;;19.43;16.90;;;6.40;45.50;;;;;;10239087;28;20232;-69
2020/12/11 14:26:08;;;;;;;16.93;14.80;;;6.40;45.40;;;;;;10236130;28;20235;-69
2020/12/11 14:31:11;;;;;;;17.77;15.87;;;6.30;45.40;;;;;;10239726;28;20592;-69
2020/12/11 14:36:15;;;;;;;16.93;15.17;;;6.30;45.50;;;;;;10234767;28;20311;-74
2020/12/11 14:41:21;;;;;;;18.23;16.27;;;6.30;45.50;;;;;;10228879;28;20236;-75
2020/12/11 14:46:24;;;;;;;16.60;14.90;;;6.30;45.50;;;;;;10234997;28;20224;-75
2020/12/11 14:51:32;;;;;;;15.70;14.17;;;6.30;45.60;;;;;;10237478;29;20239;-74
2020/12/11 14:56:35;;;;;;;18.87;16.70;;;6.40;45.40;;;;;;10239503;28;20228;-74
2020/12/11 15:01:38;;;;;;;20.73;18.00;;;6.40;45.40;;;;;;10235227;28;20609;-75
2020/12/11 15:06:45;;;;;;;19.23;17.23;;;6.40;45.30;;;;;;10234908;28;20240;-75
2020/12/11 15:11:50;;;;;;;17.93;15.83;;;6.40;45.10;;;;;;10242814;28;20716;-68
2020/12/11 15:16:52;;;;;;;18.50;15.70;;;6.30;45.10;;;;;;10247006;28;20228;-68
2020/12/11 15:21:55;;;;;;;15.67;13.93;;;6.20;45.20;;;;;;10236827;28;20226;-68
2020/12/11 15:26:59;;;;;;;17.03;13.83;;;6.20;45.40;;;;;;10238564;28;20220;-68
2020/12/11 15:32:01;;;;;;;15.43;12.63;;;6.10;45.10;;;;;;10239539;28;20753;-72
2020/12/11 15:37:07;;;;;;;14.27;12.60;;;6.10;45.10;;;;;;10246443;28;20311;-68
2020/12/11 15:42:10;;;;;;;14.47;12.83;;;6.00;45.30;;;;;;10245554;28;20243;-74
2020/12/11 15:47:12;;;;;;;15.50;13.80;;;6.00;45.30;;;;;;10236485;28;20644;-75
2020/12/11 15:52:17;;;;;;;13.57;12.00;;;5.90;45.20;;;;;;10241766;28;20256;-74
2020/12/11 15:57:19;;;;;;;18.03;15.60;;;5.80;45.20;;;;;;10236458;29;20239;-69
2020/12/11 16:02:21;;;;;;;19.83;14.77;;;5.70;45.20;;;;;;10238193;28;20653;-69
2020/12/11 16:07:24;;;;;;;13.70;11.93;;;5.60;45.30;;;;;;10238711;28;20228;-69
2020/12/11 16:12:27;;;;;;;14.97;12.30;;;5.60;46.20;;;;;;10232895;28;20232;-73
2020/12/11 16:17:29;;;;;;;15.53;12.33;;;5.60;46.10;;;;;;10246388;28;20311;-69
2020/12/11 16:22:34;;;;;;;16.23;13.10;;;5.60;45.80;;;;;;10234752;28;20307;-69
2020/12/11 16:27:38;;;;;;;15.63;12.13;;;5.70;45.70;;;;;;10240502;28;20303;-69
2020/12/11 16:32:40;;;;;;;12.83;11.33;;;5.70;45.50;;;;;;10243874;28;20224;-69
2020/12/11 16:37:47;;;;;;;14.23;11.67;;;5.70;45.50;;;;;;10242535;28;20267;-69
2020/12/11 16:42:58;;;;;;;13.47;11.97;;;5.70;45.40;;;;;;10241114;28;20322;-68
2020/12/11 16:48:03;;;;;;;14.70;13.17;;;5.70;45.40;;;;;;10227563;28;20311;-69
2020/12/11 16:53:06;;;;;;;17.40;13.87;;;5.60;45.30;;;;;;10241706;28;20228;-68
2020/12/11 16:58:08;;;;;;;14.63;12.87;;;5.60;45.40;;;;;;10231628;28;20224;-70
2020/12/11 17:08:33;;;;;;;28.63;19.67;;;5.40;45.40;;;;;;10236608;28;20225;-74
2020/12/11 17:13:35;;;;;;;51.23;30.60;;;5.40;45.50;;;;;;10241595;28;20306;-75
2020/12/11 17:18:37;;;;;;;47.13;31.50;;;5.30;45.60;;;;;;10238818;28;20228;-74
2020/12/11 17:23:40;;;;;;;45.70;31.27;;;5.30;45.60;;;;;;10236349;28;20234;-74
2020/12/11 17:28:43;;;;;;;37.80;32.10;;;5.30;45.60;;;;;;10237015;28;20228;-74
2020/12/11 17:33:49;;;;;;;20.63;17.63;;;5.30;45.60;;;;;;10233190;28;20227;-74
2020/12/11 17:38:52;;;;;;;17.63;14.67;;;5.30;45.60;;;;;;10229801;28;20229;-74
2020/12/11 17:43:54;;;;;;;15.03;12.77;;;5.30;45.60;;;;;;10242679;28;20217;-74
2020/12/11 17:49:11;;;;;;;15.53;12.93;;;5.30;45.50;;;;;;10229560;28;20303;-74
2020/12/11 17:54:14;;;;;;;18.40;15.83;;;5.30;45.50;;;;;;10235910;28;20220;-74
2020/12/11 17:59:17;;;;;;;17.17;15.40;;;5.20;45.50;;;;;;10239909;28;20723;-68
2020/12/11 18:04:19;;;;;;;25.33;22.70;;;5.20;45.50;;;;;;10236087;28;20235;-69
2020/12/11 18:09:23;;;;;;;27.23;24.27;;;5.20;45.60;;;;;;10242008;28;20242;-69
2020/12/11 18:14:25;;;;;;;21.97;17.90;;;5.20;45.60;;;;;;10238344;28;20247;-69
2020/12/11 18:19:28;;;;;;;21.30;18.10;;;5.20;45.50;;;;;;10233100;28;20229;-68
2020/12/11 18:24:34;;;;;;;20.60;16.87;;;5.10;45.50;;;;;;10233586;28;20315;-69
2020/12/11 18:29:40;;;;;;;20.60;17.43;;;5.10;45.60;;;;;;10234454;28;20230;-69
2020/12/11 18:34:42;;;;;;;22.20;18.60;;;5.10;45.60;;;;;;10229539;28;20235;-69
2020/12/11 18:39:45;;;;;;;23.70;17.83;;;5.00;46.50;;;;;;10231887;28;20255;-69
2020/12/11 18:44:47;;;;;;;21.17;18.10;;;5.00;45.90;;;;;;10236536;28;20600;-74
2020/12/11 18:49:50;;;;;;;21.07;18.37;;;5.00;45.80;;;;;;10237264;28;20224;-69
2020/12/11 18:54:57;;;;;;;18.73;16.10;;;5.00;45.80;;;;;;10242029;28;20231;-73
2020/12/11 18:59:59;;;;;;;20.90;17.40;;;5.10;45.90;;;;;;10229336;29;20237;-74
2020/12/11 19:05:02;;;;;;;18.97;16.47;;;5.10;45.90;;;;;;10243343;28;20247;-71
2020/12/11 19:10:05;;;;;;;18.83;16.30;;;5.10;45.80;;;;;;10244765;28;20307;-68
2020/12/11 19:15:07;;;;;;;17.67;15.73;;;5.10;45.80;;;;;;10237918;28;20234;-69
2020/12/11 19:20:11;;;;;;;17.07;14.90;;;5.20;45.80;;;;;;10242777;28;20755;-68
2020/12/11 19:25:14;;;;;;;16.80;14.67;;;5.20;45.90;;;;;;10244330;28;20238;-73
2020/12/11 19:30:16;;;;;;;16.10;14.00;;;5.20;45.80;;;;;;10247065;28;20236;-69
2020/12/11 19:35:19;;;;;;;16.70;14.90;;;5.20;45.90;;;;;;10245365;28;20232;-69
2020/12/11 19:40:22;;;;;;;16.60;14.80;;;5.20;45.90;;;;;;10240430;28;20240;-74
2020/12/11 19:45:24;;;;;;;18.00;16.10;;;5.30;46.10;;;;;;10241475;28;20235;-68
2020/12/11 19:50:26;;;;;;;18.33;16.20;;;5.40;46.00;;;;;;10241667;28;20232;-68
2020/12/11 19:55:30;;;;;;;23.53;19.40;;;5.40;45.80;;;;;;10237844;28;20228;-69
2020/12/11 20:00:33;;;;;;;23.97;19.07;;;5.50;45.70;;;;;;10231161;28;20236;-72
2020/12/11 20:05:36;;;;;;;20.87;18.13;;;5.50;45.80;;;;;;10240236;28;20224;-72
2020/12/11 20:10:39;;;;;;;19.60;16.93;;;5.50;45.60;;;;;;10241625;28;20224;-73
2020/12/11 20:15:41;;;;;;;23.70;18.30;;;5.40;45.50;;;;;;10240781;28;20224;-73
2020/12/11 20:20:44;;;;;;;23.07;20.73;;;5.40;45.60;;;;;;10232584;28;20574;-73
2020/12/11 20:25:47;;;;;;;18.33;16.40;;;5.30;45.60;;;;;;10239000;28;20344;-74
2020/12/11 20:30:50;;;;;;;17.63;15.63;;;5.30;45.60;;;;;;10228516;28;20239;-73
2020/12/11 20:35:52;;;;;;;22.57;20.10;;;5.30;45.70;;;;;;10228448;28;20225;-72
2020/12/11 20:40:55;;;;;;;18.53;16.53;;;5.40;45.90;;;;;;10227277;28;20232;-68
2020/12/11 20:45:57;;;;;;;17.93;16.07;;;5.40;45.80;;;;;;10227002;28;20220;-69
2020/12/11 20:50:59;;;;;;;20.97;17.63;;;5.40;45.90;;;;;;10234162;28;20259;-69
2020/12/11 20:56:05;;;;;;;20.57;17.30;;;5.50;46.50;;;;;;10232212;28;20251;-70
2020/12/11 21:01:07;;;;;;;19.77;17.60;;;5.50;46.20;;;;;;10228624;28;20240;-70
2020/12/11 21:06:10;;;;;;;20.87;18.67;;;5.60;45.90;;;;;;10240065;28;20308;-70
2020/12/11 21:11:14;;;;;;;19.87;17.70;;;5.60;45.50;;;;;;10222377;28;20243;-70
2020/12/11 21:16:16;;;;;;;23.07;17.97;;;5.50;45.40;;;;;;10237155;28;20232;-72
2020/12/11 21:21:23;;;;;;;21.27;18.53;;;5.50;45.40;;;;;;10220990;28;20232;-72
2020/12/11 21:26:26;;;;;;;19.70;16.70;;;5.40;45.40;;;;;;10232071;28;20231;-72
2020/12/11 21:31:29;;;;;;;20.50;16.83;;;5.40;45.50;;;;;;10235593;28;20229;-73
2020/12/11 21:36:32;;;;;;;17.67;15.50;;;5.40;45.60;;;;;;10217950;29;20221;-70
2020/12/11 21:41:35;;;;;;;20.00;16.50;;;5.30;45.60;;;;;;10220349;28;20232;-70
2020/12/11 21:46:37;;;;;;;18.60;15.33;;;5.30;45.60;;;;;;10222971;29;20244;-70
2020/12/11 21:51:40;;;;;;;16.93;15.17;;;5.30;45.60;;;;;;10228874;28;20237;-68
2020/12/11 21:56:45;;;;;;;18.77;16.07;;;5.20;45.60;;;;;;10221714;28;20254;-69
2020/12/11 22:01:51;;;;;;;19.33;16.47;;;5.20;45.70;;;;;;10233302;28;20232;-69
2020/12/11 22:06:53;;;;;;;18.73;16.30;;;5.20;45.70;;;;;;10232733;28;20236;-70
2020/12/11 22:11:56;;;;;;;20.53;17.50;;;5.20;45.60;;;;;;10235181;28;20235;-70
2020/12/11 22:16:59;;;;;;;18.27;16.27;;;5.20;45.80;;;;;;10241319;28;20723;-73
2020/12/11 22:22:01;;;;;;;20.17;17.83;;;5.20;45.90;;;;;;10224296;28;20252;-71
2020/12/11 22:27:04;;;;;;;22.27;18.20;;;5.20;45.90;;;;;;10237915;28;20228;-69
2020/12/11 22:32:06;;;;;;;20.63;17.53;;;5.20;45.90;;;;;;10223005;29;20238;-69
2020/12/11 22:37:15;;;;;;;18.73;16.73;;;5.20;45.90;;;;;;10232540;28;20251;-69
2020/12/11 22:42:19;;;;;;;21.27;17.33;;;5.10;45.90;;;;;;10234308;28;20236;-69
2020/12/11 22:47:22;;;;;;;20.97;17.67;;;5.20;46.00;;;;;;10238163;28;20232;-70
2020/12/11 22:52:24;;;;;;;21.43;17.83;;;5.20;45.90;;;;;;10233483;28;20260;-70
2020/12/11 22:57:27;;;;;;;20.63;17.43;;;5.20;45.80;;;;;;10239229;28;20227;-72
2020/12/11 23:02:29;;;;;;;20.00;17.13;;;5.20;45.80;;;;;;10242710;28;20228;-73
2020/12/11 23:07:32;;;;;;;21.17;17.87;;;5.20;45.90;;;;;;10231434;28;20257;-73
2020/12/11 23:12:35;;;;;;;20.30;17.33;;;5.20;45.80;;;;;;10232595;28;20243;-72
2020/12/11 23:17:37;;;;;;;21.80;18.40;;;5.20;45.90;;;;;;10231329;28;20233;-73
2020/12/11 23:22:39;;;;;;;21.13;17.17;;;5.20;46.10;;;;;;10231279;28;20228;-72
2020/12/11 23:27:42;;;;;;;19.23;16.93;;;5.10;46.00;;;;;;10223023;28;20240;-72
2020/12/11 23:32:45;;;;;;;21.07;17.20;;;5.10;46.20;;;;;;10244535;28;20608;-72
2020/12/11 23:37:48;;;;;;;18.77;16.10;;;5.00;46.10;;;;;;10239418;28;20235;-72
2020/12/11 23:42:51;;;;;;;22.30;18.07;;;5.00;46.30;;;;;;10234098;28;20236;-73
2020/12/11 23:47:53;;;;;;;21.33;17.17;;;5.00;46.40;;;;;;10242112;28;20232;-72
2020/12/11 23:52:56;;;;;;;19.97;16.07;;;5.00;46.40;;;;;;10242749;28;20728;-69
2020/12/11 23:57:59;;;;;;;20.40;16.47;;;5.00;46.50;;;;;;10243460;28;20227;-73
